createdAt,value
2019-02-19T00:01:04.446Z,20.60
2019-02-19T00:03:32.430Z,19.30
2019-02-19T00:06:00.157Z,20.03
2019-02-19T00:08:28.153Z,20.20
2019-02-19T00:10:55.816Z,19.97
2019-02-19T00:13:23.697Z,20.23
2019-02-19T00:15:51.782Z,19.93
2019-02-19T00:18:19.281Z,20.13
2019-02-19T00:20:46.769Z,20.87
2019-02-19T00:23:16.274Z,20.00
2019-02-19T00:25:44.099Z,20.40
2019-02-19T00:28:11.912Z,20.40
2019-02-19T00:30:40.044Z,19.73
2019-02-19T00:33:07.909Z,20.03
2019-02-19T00:35:35.869Z,21.37
2019-02-19T00:38:03.609Z,21.93
2019-02-19T00:40:31.428Z,21.60
2019-02-19T00:42:59.286Z,21.57
2019-02-19T00:45:27.480Z,22.57
2019-02-19T00:47:55.361Z,22.70
2019-02-19T00:50:23.058Z,21.63
2019-02-19T00:52:50.553Z,22.93
2019-02-19T00:55:18.433Z,22.73
2019-02-19T00:57:45.825Z,22.80
2019-02-19T01:00:15.763Z,23.13
2019-02-19T01:02:43.536Z,22.30
2019-02-19T01:05:11.428Z,21.97
2019-02-19T01:07:39.400Z,21.77
2019-02-19T01:10:07.282Z,22.00
2019-02-19T01:12:35.309Z,21.37
2019-02-19T01:15:03.585Z,22.57
2019-02-19T01:17:31.018Z,23.17
2019-02-19T01:19:59.001Z,22.73
2019-02-19T01:22:26.728Z,22.97
2019-02-19T01:24:54.664Z,23.03
2019-02-19T01:27:22.627Z,23.10
2019-02-19T01:29:50.569Z,23.83
2019-02-19T01:32:18.988Z,24.27
2019-02-19T01:34:46.808Z,25.47
2019-02-19T01:37:14.790Z,24.70
2019-02-19T01:39:42.748Z,25.27
2019-02-19T01:42:10.619Z,25.10
2019-02-19T01:44:38.794Z,24.83
2019-02-19T01:47:06.612Z,23.63
2019-02-19T01:49:34.671Z,25.10
2019-02-19T01:52:05.148Z,24.27
2019-02-19T01:54:32.691Z,24.10
2019-02-19T01:57:00.271Z,22.80
2019-02-19T01:59:28.109Z,23.77
2019-02-19T02:01:55.914Z,22.87
2019-02-19T02:04:23.612Z,23.40
2019-02-19T02:06:51.408Z,23.53
2019-02-19T02:09:19.580Z,23.53
2019-02-19T02:11:47.067Z,23.87
2019-02-19T02:14:15.017Z,22.30
2019-02-19T02:16:42.888Z,24.03
2019-02-19T02:19:10.421Z,23.13
2019-02-19T02:21:38.687Z,23.20
2019-02-19T02:24:06.228Z,23.50
2019-02-19T02:26:34.097Z,23.17
2019-02-19T02:29:01.688Z,25.27
2019-02-19T02:31:29.373Z,24.27
2019-02-19T02:33:57.279Z,23.93
2019-02-19T02:36:25.483Z,25.17
2019-02-19T02:38:53.517Z,26.03
2019-02-19T02:41:21.279Z,25.77
2019-02-19T02:43:49.210Z,24.90
2019-02-19T02:46:17.113Z,26.70
2019-02-19T02:48:45.056Z,27.27
2019-02-19T02:51:14.404Z,26.47
2019-02-19T02:53:41.943Z,27.90
2019-02-19T02:56:09.932Z,26.43
2019-02-19T02:58:38.641Z,26.93
2019-02-19T03:01:06.651Z,26.73
2019-02-19T03:03:34.439Z,26.87
2019-02-19T03:06:20.867Z,27.73
2019-02-19T03:08:48.751Z,27.60
2019-02-19T03:11:16.871Z,26.67
2019-02-19T03:13:45.019Z,28.83
2019-02-19T03:16:13.138Z,27.27
2019-02-19T03:18:41.311Z,29.23
2019-02-19T03:21:09.013Z,28.03
2019-02-19T03:23:37.233Z,29.10
2019-02-19T03:26:05.131Z,29.07
2019-02-19T03:28:33.063Z,29.30
2019-02-19T03:31:00.598Z,28.90
2019-02-19T03:33:28.317Z,30.50
2019-02-19T03:35:55.805Z,31.47
2019-02-19T03:38:23.178Z,29.93
2019-02-19T03:40:51.161Z,30.70
2019-02-19T03:43:19.007Z,31.80
2019-02-19T03:45:46.558Z,29.83
2019-02-19T03:48:14.620Z,30.60
2019-02-19T03:51:22.633Z,29.97
2019-02-19T03:53:50.941Z,30.87
2019-02-19T03:56:18.812Z,30.63
2019-02-19T03:58:46.525Z,30.57
2019-02-19T04:01:14.395Z,31.63
2019-02-19T04:03:41.963Z,30.23
2019-02-19T04:06:09.993Z,31.33
2019-02-19T04:08:37.895Z,31.40
2019-02-19T04:11:05.807Z,32.20
2019-02-19T04:13:33.427Z,33.30
2019-02-19T04:16:01.317Z,32.00
2019-02-19T04:18:29.150Z,32.60
2019-02-19T04:20:56.641Z,32.67
2019-02-19T04:23:24.128Z,32.57
2019-02-19T04:25:52.109Z,34.07
2019-02-19T04:28:20.188Z,33.37
2019-02-19T04:30:47.986Z,33.93
2019-02-19T04:33:15.893Z,34.37
2019-02-19T04:35:43.551Z,34.53
2019-02-19T04:38:11.579Z,34.63
2019-02-19T04:40:39.545Z,36.77
2019-02-19T04:43:07.777Z,37.07
2019-02-19T04:45:35.335Z,35.97
2019-02-19T04:48:03.132Z,38.07
2019-02-19T04:50:31.012Z,37.40
2019-02-19T04:52:59.053Z,38.00
2019-02-19T04:55:27.314Z,37.63
2019-02-19T04:57:55.416Z,36.70
2019-02-19T05:00:23.619Z,39.20
2019-02-19T05:02:52.161Z,37.77
2019-02-19T05:05:22.363Z,39.67
2019-02-19T05:07:50.212Z,37.37
2019-02-19T05:10:18.684Z,39.07
2019-02-19T05:12:50.049Z,37.87
2019-02-19T05:15:18.126Z,38.50
2019-02-19T05:17:46.165Z,38.90
2019-02-19T05:20:14.381Z,38.60
2019-02-19T05:22:44.853Z,38.70
2019-02-19T05:25:13.120Z,37.67
2019-02-19T05:27:42.196Z,39.30
2019-02-19T05:30:11.552Z,37.27
2019-02-19T05:32:39.977Z,35.80
2019-02-19T05:35:08.780Z,36.97
2019-02-19T05:37:41.136Z,36.17
2019-02-19T05:40:09.320Z,36.60
2019-02-19T05:42:37.906Z,35.27
2019-02-19T05:45:06.037Z,36.43
2019-02-19T05:47:37.189Z,36.97
2019-02-19T05:50:05.789Z,35.63
2019-02-19T05:52:41.761Z,36.63
2019-02-19T05:55:09.936Z,35.83
2019-02-19T06:00:43.205Z,35.50
2019-02-19T06:03:11.599Z,37.97
2019-02-19T06:05:39.908Z,35.97
2019-02-19T06:08:09.378Z,37.07
2019-02-19T06:10:37.804Z,36.27
2019-02-19T06:13:05.722Z,37.23
2019-02-19T06:15:34.310Z,38.23
2019-02-19T06:18:03.213Z,39.10
2019-02-19T06:20:32.864Z,36.87
2019-02-19T06:23:00.619Z,37.80
2019-02-19T06:25:29.331Z,36.60
2019-02-19T06:27:57.939Z,36.03
2019-02-19T06:30:29.142Z,37.73
2019-02-19T06:32:58.481Z,37.60
2019-02-19T06:35:26.963Z,36.37
2019-02-19T06:37:59.640Z,33.83
2019-02-19T06:40:30.027Z,34.37
2019-02-19T06:42:58.499Z,34.27
2019-02-19T06:45:41.033Z,32.33
2019-02-19T06:48:09.945Z,33.00
2019-02-19T06:50:38.332Z,34.40
2019-02-19T06:53:09.418Z,33.70
2019-02-19T06:55:41.501Z,34.60
2019-02-19T06:58:13.578Z,32.20
2019-02-19T07:00:44.938Z,31.10
2019-02-19T07:03:51.591Z,31.00
2019-02-19T07:12:46.448Z,29.20
2019-02-19T07:15:17.866Z,27.70
2019-02-19T07:17:46.464Z,26.90
2019-02-19T07:20:16.209Z,26.07
2019-02-19T07:22:46.538Z,25.43
2019-02-19T07:25:15.630Z,24.13
2019-02-19T07:27:49.875Z,24.07
2019-02-19T07:30:17.676Z,23.13
2019-02-19T07:32:49.732Z,24.93
2019-02-19T07:35:19.219Z,25.67
2019-02-19T07:37:47.950Z,27.17
2019-02-19T07:40:17.473Z,25.53
2019-02-19T07:42:58.376Z,25.87
2019-02-19T07:45:27.601Z,25.80
2019-02-19T07:47:56.950Z,27.10
2019-02-19T07:50:25.776Z,27.53
2019-02-19T07:52:57.893Z,26.23
2019-02-19T07:55:30.304Z,26.03
2019-02-19T07:58:00.252Z,27.00
2019-02-19T08:00:28.488Z,26.00
2019-02-19T08:02:58.242Z,25.23
2019-02-19T08:05:30.019Z,24.90
2019-02-19T08:07:58.040Z,24.30
2019-02-19T08:10:31.321Z,24.50
2019-02-19T08:12:59.936Z,23.07
2019-02-19T08:15:28.763Z,23.80
2019-02-19T08:17:56.975Z,22.50
2019-02-19T08:20:26.951Z,22.47
2019-02-19T08:22:55.880Z,22.43
2019-02-19T08:25:24.778Z,22.60
2019-02-19T08:27:52.810Z,22.17
2019-02-19T08:30:21.385Z,19.90
2019-02-19T08:32:49.457Z,21.63
2019-02-19T08:35:18.454Z,20.60
2019-02-19T08:37:58.818Z,21.13
2019-02-19T08:40:32.876Z,19.13
2019-02-19T08:43:03.771Z,20.97
2019-02-19T08:45:32.254Z,20.07
2019-02-19T08:48:01.146Z,19.87
2019-02-19T08:50:29.893Z,19.33
2019-02-19T08:52:58.173Z,19.50
2019-02-19T08:55:28.279Z,19.00
2019-02-19T08:57:58.657Z,17.60
2019-02-19T09:00:27.942Z,18.97
2019-02-19T09:02:58.202Z,17.57
2019-02-19T09:05:31.835Z,16.90
2019-02-19T09:08:00.517Z,16.57
2019-02-19T09:10:28.718Z,18.87
2019-02-19T09:12:59.253Z,16.93
2019-02-19T09:15:30.181Z,17.07
2019-02-19T09:18:00.122Z,16.27
2019-02-19T09:20:29.829Z,15.70
2019-02-19T09:23:11.168Z,15.80
2019-02-19T09:25:40.988Z,16.57
2019-02-19T09:28:10.152Z,16.30
2019-02-19T09:34:12.143Z,15.87
2019-02-19T09:36:40.397Z,15.90
2019-02-19T09:39:09.581Z,15.23
2019-02-19T09:41:38.088Z,15.87
2019-02-19T09:44:07.513Z,15.13
2019-02-19T09:46:38.256Z,16.13
2019-02-19T09:49:07.538Z,15.17
2019-02-19T09:51:35.683Z,13.03
2019-02-19T09:54:04.630Z,14.17
2019-02-19T09:56:33.600Z,14.40
2019-02-19T09:59:02.043Z,15.30
2019-02-19T10:01:30.963Z,13.77
2019-02-19T10:04:00.979Z,13.73
2019-02-19T10:06:33.528Z,13.97
2019-02-19T10:09:01.991Z,13.23
2019-02-19T10:11:34.441Z,14.90
2019-02-19T10:14:04.252Z,13.40
2019-02-19T10:16:41.726Z,14.00
2019-02-19T10:19:06.865Z,13.83
2019-02-19T10:21:35.884Z,13.80
2019-02-19T10:24:05.106Z,14.30
2019-02-19T10:26:36.382Z,13.70
2019-02-19T10:29:04.524Z,13.70
2019-02-19T10:31:48.555Z,13.53
2019-02-19T10:34:18.035Z,14.40
2019-02-19T10:36:49.569Z,14.53
2019-02-19T10:39:18.593Z,14.00
2019-02-19T10:41:47.085Z,12.40
2019-02-19T10:44:35.159Z,12.90
2019-02-19T10:47:05.164Z,12.90
2019-02-19T10:49:34.774Z,12.00
2019-02-19T10:52:03.494Z,12.17
2019-02-19T10:54:32.060Z,12.20
2019-02-19T10:57:06.914Z,11.30
2019-02-19T10:59:35.697Z,11.20
2019-02-19T11:02:03.968Z,12.20
2019-02-19T11:04:35.770Z,11.53
2019-02-19T11:07:04.584Z,12.10
2019-02-19T11:09:32.894Z,12.50
2019-02-19T11:12:01.249Z,12.30
2019-02-19T11:14:33.180Z,11.27
2019-02-19T11:17:36.371Z,11.97
2019-02-19T11:20:13.610Z,11.73
2019-02-19T11:22:44.510Z,12.53
2019-02-19T11:25:13.098Z,12.53
2019-02-19T11:27:42.671Z,13.20
2019-02-19T11:30:16.839Z,12.10
2019-02-19T11:32:45.313Z,12.33
2019-02-19T11:35:38.162Z,12.33
2019-02-19T11:38:15.665Z,12.63
2019-02-19T11:40:46.799Z,12.90
2019-02-19T11:43:17.471Z,11.67
2019-02-19T11:45:47.626Z,12.63
2019-02-19T11:48:16.224Z,13.77
2019-02-19T11:54:18.188Z,12.43
2019-02-19T11:56:47.693Z,11.40
2019-02-19T11:59:18.919Z,11.73
2019-02-19T12:01:48.876Z,12.47
2019-02-19T12:04:19.768Z,12.70
2019-02-19T12:06:51.584Z,12.87
2019-02-19T12:09:52.819Z,12.47
2019-02-19T12:12:02.135Z,12.00
2019-02-19T12:14:43.780Z,11.37
2019-02-19T12:17:10.353Z,12.47
2019-02-19T12:23:00.101Z,11.83
2019-02-19T12:25:37.614Z,12.10
2019-02-19T12:28:26.572Z,11.57
2019-02-19T12:30:56.062Z,12.43
2019-02-19T12:33:26.060Z,11.30
2019-02-19T12:35:54.380Z,12.20
2019-02-19T12:38:22.457Z,10.87
2019-02-19T12:41:00.171Z,11.87
2019-02-19T12:43:27.909Z,11.30
2019-02-19T12:45:57.052Z,11.73
2019-02-19T12:51:55.872Z,9.87
2019-02-19T12:54:28.451Z,11.30
2019-02-19T12:56:58.387Z,10.87
2019-02-19T12:59:30.264Z,9.67
2019-02-19T13:01:59.616Z,10.37
2019-02-19T13:04:28.361Z,11.30
2019-02-19T13:06:58.043Z,11.27
2019-02-19T13:09:26.957Z,11.03
2019-02-19T13:11:55.812Z,10.93
2019-02-19T13:14:28.645Z,10.80
2019-02-19T13:16:59.197Z,12.17
2019-02-19T13:19:27.219Z,11.53
2019-02-19T13:21:56.842Z,10.00
2019-02-19T13:24:24.802Z,10.77
2019-02-19T13:26:53.214Z,10.00
2019-02-19T13:29:23.327Z,10.20
2019-02-19T13:31:51.404Z,10.23
2019-02-19T13:34:21.014Z,9.97
2019-02-19T13:36:49.031Z,9.43
2019-02-19T13:39:18.322Z,9.83
2019-02-19T13:41:46.758Z,10.10
2019-02-19T13:44:27.033Z,8.80
2019-02-19T13:46:54.791Z,8.20
2019-02-19T13:49:22.396Z,8.90
2019-02-19T13:51:52.278Z,7.73
2019-02-19T13:54:28.608Z,8.70
2019-02-19T13:56:58.265Z,7.60
2019-02-19T13:59:49.628Z,7.47
2019-02-19T14:02:18.377Z,7.07
2019-02-19T14:04:46.689Z,7.33
2019-02-19T14:07:15.363Z,7.37
2019-02-19T14:09:55.701Z,6.63
2019-02-19T14:12:26.351Z,6.77
2019-02-19T14:14:59.904Z,7.33
2019-02-19T14:17:44.439Z,6.97
2019-02-19T14:20:34.736Z,7.33
2019-02-19T14:23:50.624Z,7.00
2019-02-19T14:26:44.542Z,6.07
2019-02-19T14:29:42.082Z,7.13
2019-02-19T14:32:28.787Z,6.20
2019-02-19T14:35:18.577Z,6.73
2019-02-19T14:38:06.271Z,5.83
2019-02-19T14:40:56.714Z,6.70
2019-02-19T14:43:46.169Z,6.20
2019-02-19T14:46:34.886Z,5.93
2019-02-19T14:49:37.313Z,5.10
2019-02-19T14:52:14.709Z,4.50
2019-02-19T14:55:13.159Z,4.83
2019-02-19T14:58:13.152Z,4.50
2019-02-19T15:00:59.294Z,5.33
2019-02-19T15:04:00.664Z,5.10
2019-02-19T15:07:00.307Z,5.77
2019-02-19T15:10:03.239Z,6.03
2019-02-19T15:12:50.172Z,6.10
2019-02-19T15:15:43.446Z,6.27
2019-02-19T15:18:29.647Z,6.30
2019-02-19T15:21:17.141Z,6.33
2019-02-19T15:24:02.796Z,5.77
2019-02-19T15:27:06.818Z,5.77
2019-02-19T15:29:54.657Z,5.97
2019-02-19T15:32:47.120Z,4.83
2019-02-19T15:35:50.197Z,4.80
2019-02-19T15:38:48.249Z,4.93
2019-02-19T15:41:53.734Z,5.63
2019-02-19T15:44:32.727Z,5.43
2019-02-19T15:47:29.729Z,5.27
2019-02-19T15:50:26.981Z,5.37
2019-02-19T15:53:10.982Z,5.40
2019-02-19T15:55:52.302Z,5.97
2019-02-19T15:58:38.595Z,6.27
2019-02-19T16:01:34.919Z,6.07
2019-02-19T16:04:07.167Z,6.03
2019-02-19T16:06:50.576Z,6.83
2019-02-19T16:09:46.512Z,6.30
2019-02-19T16:24:05.930Z,6.33
2019-02-19T16:27:31.946Z,6.70
2019-02-19T16:30:38.920Z,5.77
2019-02-19T16:41:26.640Z,6.10
2019-02-19T16:44:43.273Z,5.60
2019-02-19T17:39:38.658Z,6.17
2019-02-19T17:42:34.296Z,6.93
2019-02-19T17:45:22.395Z,6.47
2019-02-19T17:48:28.460Z,6.83
2019-02-19T17:51:34.612Z,7.23
2019-02-19T17:54:25.036Z,8.17
2019-02-19T17:57:40.229Z,7.53
2019-02-19T18:04:35.666Z,6.63
2019-02-19T18:07:23.611Z,7.03
2019-02-19T18:10:14.409Z,7.13
2019-02-19T18:13:13.988Z,6.43
2019-02-19T18:23:49.867Z,7.63
2019-02-19T18:26:18.136Z,7.70
2019-02-19T18:30:03.662Z,7.20
2019-02-19T18:36:18.381Z,6.50
2019-02-19T18:38:48.407Z,7.23
2019-02-19T18:44:44.999Z,6.80
2019-02-19T18:50:07.077Z,8.10
2019-02-19T18:53:19.928Z,7.53
2019-02-19T18:55:48.227Z,7.63
2019-02-19T18:58:16.819Z,6.93
2019-02-19T19:01:12.175Z,7.60
2019-02-19T19:03:40.500Z,8.67
2019-02-19T19:06:09.972Z,8.07
2019-02-19T19:08:38.122Z,8.57
2019-02-19T19:11:06.186Z,9.23
2019-02-19T19:13:34.931Z,9.00
2019-02-19T19:16:25.775Z,7.77
2019-02-19T19:18:58.427Z,8.47
2019-02-19T19:21:28.008Z,9.73
2019-02-19T19:23:56.355Z,8.30
2019-02-19T19:26:28.434Z,8.73
2019-02-19T19:29:02.057Z,9.13
2019-02-19T19:31:33.401Z,8.60
2019-02-19T19:33:59.892Z,8.93
2019-02-19T19:36:27.808Z,9.80
2019-02-19T19:38:56.128Z,9.07
2019-02-19T19:41:23.867Z,9.27
2019-02-19T19:43:52.849Z,8.47
2019-02-19T19:46:21.929Z,8.77
2019-02-19T19:48:50.227Z,8.80
2019-02-19T19:51:18.210Z,9.03
2019-02-19T19:53:46.150Z,8.70
2019-02-19T19:56:15.083Z,9.40
2019-02-19T19:58:43.565Z,9.20
2019-02-19T20:01:36.256Z,9.43
2019-02-19T20:03:55.406Z,9.60
2019-02-19T20:06:24.131Z,10.17
2019-02-19T20:08:52.034Z,9.77
2019-02-19T20:11:20.510Z,10.57
2019-02-19T20:13:50.813Z,10.70
2019-02-19T20:16:19.053Z,11.43
2019-02-19T20:18:46.994Z,11.13
2019-02-19T20:21:14.882Z,11.80
2019-02-19T20:32:19.816Z,11.00
2019-02-19T20:34:47.462Z,12.10
2019-02-19T20:37:17.130Z,12.50
2019-02-19T20:39:45.330Z,11.20
2019-02-19T20:42:52.784Z,12.37
2019-02-19T20:45:20.734Z,12.63
2019-02-19T20:47:49.881Z,11.10
2019-02-19T20:50:21.077Z,13.07
2019-02-19T20:52:49.765Z,12.73
2019-02-19T20:55:19.505Z,11.83
2019-02-19T20:57:49.906Z,12.27
2019-02-19T21:00:18.146Z,12.83
2019-02-19T21:02:48.517Z,12.20
2019-02-19T21:05:16.567Z,13.23
2019-02-19T21:07:45.002Z,13.10
2019-02-19T21:10:24.098Z,13.70
2019-02-19T21:12:51.923Z,13.07
2019-02-19T21:20:10.180Z,12.83
2019-02-19T21:26:08.791Z,14.53
2019-02-19T21:39:21.571Z,14.03
2019-02-19T21:41:52.991Z,15.83
2019-02-19T21:44:22.237Z,15.17
2019-02-19T21:46:50.678Z,14.27
2019-02-19T21:49:18.706Z,15.77
2019-02-19T21:51:53.931Z,15.33
2019-02-19T21:54:17.894Z,15.87
2019-02-19T21:56:46.000Z,14.43
2019-02-19T21:59:14.764Z,14.17
2019-02-19T22:01:42.836Z,15.63
2019-02-19T22:21:10.822Z,15.23
2019-02-19T22:23:39.986Z,14.70
2019-02-19T22:26:10.191Z,16.57
2019-02-19T22:28:37.967Z,15.00
2019-02-19T22:31:07.191Z,13.73
2019-02-19T22:33:35.938Z,14.10
2019-02-19T22:36:27.230Z,14.33
2019-02-19T22:38:55.302Z,15.37
2019-02-19T22:41:24.080Z,15.27
2019-02-19T22:43:54.939Z,15.57
2019-02-19T22:46:23.194Z,15.43
2019-02-19T22:48:51.101Z,13.90
2019-02-19T22:51:18.814Z,14.73
2019-02-19T22:53:53.651Z,14.13
2019-02-19T22:56:25.112Z,14.97
2019-02-19T22:58:53.554Z,14.37
2019-02-19T23:01:30.815Z,14.50
2019-02-19T23:03:59.348Z,14.83
2019-02-19T23:06:27.358Z,14.13
2019-02-19T23:08:56.163Z,13.20
2019-02-19T23:11:34.248Z,14.03
2019-02-19T23:14:02.763Z,14.20
2019-02-19T23:16:30.769Z,14.03
2019-02-19T23:18:58.403Z,13.50
2019-02-19T23:21:26.407Z,13.50
2019-02-19T23:23:54.158Z,13.93
2019-02-19T23:26:22.201Z,13.93
2019-02-19T23:28:50.235Z,13.50
2019-02-19T23:31:18.751Z,14.37
2019-02-19T23:33:46.877Z,13.50
2019-02-19T23:36:19.911Z,14.53
2019-02-19T23:38:48.527Z,14.10
2019-02-19T23:41:16.810Z,12.87
2019-02-19T23:43:44.951Z,13.67
2019-02-19T23:46:13.084Z,14.40
2019-02-19T23:48:41.685Z,14.17
2019-02-19T23:51:09.445Z,14.10
2019-02-19T23:53:37.273Z,14.00
2019-02-19T23:56:07.740Z,13.67
2019-02-19T23:58:35.850Z,13.83
